Waldo, Wisconsin
Current Conditions -  °F | °C
As of 10:25 PM on Wednesday 22 Oct 2014 (Local Time) from KSBM Reporting Station
Haze Haze  
Wind Chill: 33°   Ceiling: Unl
Heat Index: 33°   Visibility: 6mi
Dew Point: 31°   Wind: 0mph
Humidity: 92%   Direction: NA
Pressure: 30.27"   Gusts: NA
Location:  43.67°N, 87.95°W
Report Text: KSBM 230325Z AUTO 00000KT 6SM BR CLR 01/M01 A3027 RMK AO2 T00061006
Loading
Personal Weather Stations






























Interactive Weather Map New forecast layout! Learn more

10-Day Weather Forecast

Advertisements
Track Severe Weather on mobile